Terminal Aerodrome Forecast
Issued by NWS

Home | Current Version | Previous Version | Text Only | Print | Product List | Glossary On
Versions: 1 2 3 4 5 6 7 8 9 10 11 12 13 14 15 16 17 18 19 20 21 22 23 24 25 26 27 28 29 30
238
FTUS44 KOUN 280916 AAA
TAFWWR
TAF AMD
KWWR 280916Z 2809/2906 11010KT 4SM BR SCT004 BKN110
      TEMPO 2809/2813 2SM BR OVC004
     FM281500 11014G22KT P6SM BKN035
      TEMPO 2818/2822 2SM TSRA BR OVC015CB
     FM290300 07008KT P6SM OVC008=

USA.gov is the U.S. government's official web portal to all federal, state and local government web resources and services.